Time;durP1;ratioP1;P1;durP2;ratioP2;P2;SDS_P1;SDS_P2;PMS_P1;PMS_P2;Temp;Humidity;BMP_temperature;BMP_pressure;BME280_temperature;BME280_humidity;BME280_pressure;Samples;Min_cycle;Max_cycle;Signal;HPM_P1;HPM_P2
2023/08/07 00:01:18;;;;;;;8.27;2.42;;;;;;;13.77;100.00;101117.13;5057039;28;20526;-72
2023/08/07 00:03:45;;;;;;;9.27;1.50;;;;;;;13.79;100.00;101107.22;5055988;28;20692;-70
2023/08/07 00:06:11;;;;;;;5.60;1.60;;;;;;;13.76;100.00;101108.38;5074995;28;20050;-71
2023/08/07 00:08:38;;;;;;;6.28;1.77;;;;;;;13.71;100.00;101113.31;5054454;28;20052;-73
2023/08/07 00:11:08;;;;;;;9.32;1.63;;;;;;;13.60;100.00;101109.16;5061252;28;20079;-73
2023/08/07 00:13:35;;;;;;;4.00;1.30;;;;;;;13.59;100.00;101102.22;5062713;28;20048;-71
2023/08/07 00:16:01;;;;;;;8.63;1.40;;;;;;;13.53;100.00;101108.13;5077948;28;20512;-71
2023/08/07 00:18:29;;;;;;;6.93;1.27;;;;;;;13.54;100.00;101106.31;5056688;28;20168;-70
2023/08/07 00:20:56;;;;;;;7.43;1.10;;;;;;;13.59;100.00;101118.03;5057330;28;20281;-70
2023/08/07 00:23:22;;;;;;;5.93;1.40;;;;;;;13.50;100.00;101100.53;5064884;28;20121;-73
2023/08/07 00:25:49;;;;;;;6.28;1.25;;;;;;;13.51;100.00;101093.47;5073674;28;20701;-71
2023/08/07 00:28:15;;;;;;;2.60;1.20;;;;;;;13.54;100.00;101103.69;5045664;28;20052;-73
2023/08/07 00:30:42;;;;;;;3.95;1.05;;;;;;;13.50;100.00;101107.63;5041847;28;20441;-73
2023/08/07 00:33:08;;;;;;;4.78;0.80;;;;;;;13.49;100.00;101117.34;5068242;28;20501;-73
2023/08/07 00:35:35;;;;;;;4.43;1.10;;;;;;;13.53;100.00;101108.13;5037780;28;20124;-73
2023/08/07 00:38:01;;;;;;;5.25;1.30;;;;;;;13.57;100.00;101117.38;5056540;28;20492;-70
2023/08/07 00:40:28;;;;;;;3.40;0.93;;;;;;;13.52;100.00;101113.56;5072860;28;20423;-70
2023/08/07 00:42:54;;;;;;;4.68;1.40;;;;;;;13.57;100.00;101112.09;5069490;28;20063;-71
2023/08/07 00:45:21;;;;;;;7.32;1.75;;;;;;;13.58;100.00;101118.19;5066786;28;20566;-73
2023/08/07 00:47:48;;;;;;;4.88;1.30;;;;;;;13.55;100.00;101119.34;5058102;28;20101;-71
2023/08/07 00:50:14;;;;;;;6.47;1.23;;;;;;;13.53;100.00;101118.69;5065144;28;20469;-73
2023/08/07 00:52:41;;;;;;;5.13;1.25;;;;;;;13.54;100.00;101124.75;5060152;28;20083;-73
2023/08/07 00:55:08;;;;;;;2.85;1.10;;;;;;;13.54;100.00;101128.22;5066722;28;20284;-70
2023/08/07 00:57:34;;;;;;;4.00;1.27;;;;;;;13.49;100.00;101132.34;5086369;28;20488;-73
2023/08/07 01:00:02;;;;;;;6.07;1.48;;;;;;;13.57;100.00;101129.72;5074444;28;20052;-70
2023/08/07 01:02:28;;;;;;;6.10;1.30;;;;;;;13.58;100.00;101134.00;5049534;28;20087;-70
2023/08/07 01:04:55;;;;;;;5.97;1.40;;;;;;;13.61;100.00;101136.34;5055863;28;20058;-70
2023/08/07 01:07:22;;;;;;;4.20;1.30;;;;;;;13.56;100.00;101131.53;5081069;28;20449;-70
2023/08/07 01:09:48;;;;;;;7.00;1.48;;;;;;;13.58;100.00;101139.28;5064275;28;20484;-70
2023/08/07 01:12:18;;;;;;;5.97;1.30;;;;;;;13.62;100.00;101136.19;5069315;28;20052;-70
2023/08/07 01:14:58;;;;;;;8.48;1.38;;;;;;;13.65;100.00;101142.94;5086833;28;20117;-70
2023/08/07 01:17:25;;;;;;;5.65;1.38;;;;;;;13.54;100.00;101141.41;5063896;28;20056;-71
2023/08/07 01:19:52;;;;;;;7.35;1.35;;;;;;;13.61;100.00;101139.78;5074645;28;20445;-70
2023/08/07 01:22:20;;;;;;;6.22;1.50;;;;;;;13.60;100.00;101143.41;5066435;28;20417;-70
2023/08/07 01:24:49;;;;;;;6.57;1.65;;;;;;;13.62;100.00;101130.91;5050710;28;20052;-70
2023/08/07 01:27:18;;;;;;;7.10;1.90;;;;;;;13.57;100.00;101135.81;5068109;28;20586;-71
2023/08/07 01:30:00;;;;;;;7.93;1.80;;;;;;;13.62;100.00;101138.81;5076520;28;20059;-70
2023/08/07 01:32:30;;;;;;;8.75;1.80;;;;;;;13.65;100.00;101143.75;5065739;28;20064;-70
2023/08/07 01:35:01;;;;;;;8.43;1.98;;;;;;;13.65;100.00;101149.03;5061328;28;20061;-70
2023/08/07 01:37:31;;;;;;;9.75;1.70;;;;;;;13.62;100.00;101153.78;5079163;28;20067;-70
2023/08/07 01:40:00;;;;;;;6.60;1.63;;;;;;;13.66;100.00;101152.47;5074021;28;20460;-70
2023/08/07 01:42:27;;;;;;;8.43;1.45;;;;;;;13.62;100.00;101153.78;5090463;28;20123;-70
2023/08/07 01:44:53;;;;;;;10.13;1.80;;;;;;;13.62;100.00;101152.00;5058723;28;20074;-70
2023/08/07 01:47:20;;;;;;;11.88;2.05;;;;;;;13.62;100.00;101154.63;5048702;28;20146;-70
2023/08/07 01:49:46;;;;;;;10.80;2.33;;;;;;;13.62;100.00;101151.16;5089701;28;20044;-70
2023/08/07 01:52:13;;;;;;;15.77;2.67;;;;;;;13.65;100.00;101140.31;5069964;28;20049;-73
2023/08/07 01:54:40;;;;;;;8.40;2.00;;;;;;;13.67;100.00;101150.69;5077105;28;20135;-73
2023/08/07 01:57:06;;;;;;;8.88;2.20;;;;;;;13.61;100.00;101152.97;5057943;28;20163;-71
2023/08/07 01:59:32;;;;;;;9.55;2.28;;;;;;;13.62;100.00;101151.16;5091595;28;20025;-72
2023/08/07 02:01:59;;;;;;;9.20;3.35;;;;;;;13.64;100.00;101155.31;5079960;28;20092;-72
2023/08/07 02:04:25;;;;;;;10.38;2.50;;;;;;;13.67;100.00;101159.41;5097934;28;20102;-70
2023/08/07 02:06:52;;;;;;;8.30;2.30;;;;;;;13.74;100.00;101167.50;5067947;28;20083;-72
2023/08/07 02:09:19;;;;;;;9.93;2.85;;;;;;;13.71;100.00;101166.03;5080302;28;20048;-70
2023/08/07 02:11:46;;;;;;;8.65;2.33;;;;;;;13.71;100.00;101168.66;5071054;28;20181;-71
2023/08/07 02:14:12;;;;;;;11.02;2.45;;;;;;;13.70;100.00;101164.38;5064850;28;20470;-70
2023/08/07 02:16:39;;;;;;;11.25;2.22;;;;;;;13.70;100.00;101171.44;5076193;28;20044;-70
2023/08/07 02:19:05;;;;;;;13.27;2.50;;;;;;;13.71;100.00;101173.13;5076599;28;20049;-71
2023/08/07 02:21:32;;;;;;;14.68;2.55;;;;;;;13.71;100.00;101171.28;5074918;28;20055;-72
2023/08/07 02:23:58;;;;;;;13.75;2.75;;;;;;;13.71;100.00;101171.28;5082234;28;20230;-70
2023/08/07 02:26:25;;;;;;;11.85;2.60;;;;;;;13.72;100.00;101180.88;5040632;28;20083;-69
2023/08/07 02:28:51;;;;;;;12.77;3.08;;;;;;;13.74;100.00;101164.88;5059336;28;20079;-69
2023/08/07 02:31:18;;;;;;;12.35;2.38;;;;;;;13.76;100.00;101170.81;5057624;28;20109;-70
2023/08/07 02:33:44;;;;;;;12.13;2.20;;;;;;;13.77;100.00;101178.56;5071675;28;20127;-70
2023/08/07 02:36:11;;;;;;;15.20;3.00;;;;;;;13.78;100.00;101176.75;5081187;28;20080;-71
2023/08/07 02:38:38;;;;;;;9.10;2.42;;;;;;;13.79;100.00;101187.16;5047639;28;20110;-70
2023/08/07 02:41:04;;;;;;;14.60;2.60;;;;;;;13.81;100.00;101182.53;5054203;28;20048;-72
2023/08/07 02:43:32;;;;;;;5.57;1.98;;;;;;;13.81;100.00;101187.00;5053816;28;20209;-70
2023/08/07 02:45:59;;;;;;;;;;;;;;;13.87;100.00;101191.63;5066300;28;20710;-70
2023/08/07 02:48:25;;;;;;;13.82;2.42;;;;;;;13.85;100.00;101183.88;5070973;28;20380;-70
2023/08/07 02:50:53;;;;;;;10.55;2.35;;;;;;;13.84;100.00;101187.50;5086623;28;20067;-70
2023/08/07 02:53:19;;;;;;;9.13;2.33;;;;;;;13.87;100.00;101185.53;5085005;28;20048;-71
2023/08/07 02:55:46;;;;;;;9.48;2.17;;;;;;;13.85;100.00;101177.78;5084325;28;20048;-72
2023/08/07 02:58:12;;;;;;;10.38;2.60;;;;;;;13.87;100.00;101180.25;5084546;28;20040;-72
2023/08/07 03:00:38;;;;;;;11.98;2.10;;;;;;;13.82;100.00;101176.28;5067458;28;20043;-72
2023/08/07 03:03:05;;;;;;;12.43;2.67;;;;;;;13.81;100.00;101179.09;5089102;28;20163;-72
2023/08/07 03:05:32;;;;;;;10.95;2.90;;;;;;;13.78;100.00;101184.66;5072102;28;20052;-70
2023/08/07 03:07:58;;;;;;;8.15;2.60;;;;;;;13.75;100.00;101166.53;5085444;28;20639;-72
2023/08/07 03:10:25;;;;;;;8.68;2.30;;;;;;;13.68;100.00;101168.16;5074785;28;20536;-70
2023/08/07 03:12:52;;;;;;;10.18;2.80;;;;;;;13.68;100.00;101171.63;5072595;28;20063;-70
2023/08/07 03:15:19;;;;;;;11.45;2.63;;;;;;;13.75;100.00;101179.72;5090092;28;20044;-72
2023/08/07 03:17:45;;;;;;;9.30;2.30;;;;;;;13.67;100.00;101174.41;5042016;28;20076;-70
2023/08/07 03:20:12;;;;;;;9.85;2.47;;;;;;;13.67;100.00;101172.59;5066074;28;20068;-70
2023/08/07 03:22:38;;;;;;;12.32;2.30;;;;;;;13.63;100.00;101171.25;5063155;28;20060;-72
2023/08/07 03:25:05;;;;;;;11.05;2.40;;;;;;;13.64;100.00;101171.13;5077214;28;20115;-70
2023/08/07 03:27:32;;;;;;;13.63;2.50;;;;;;;13.67;100.00;101166.50;5081901;28;20083;-70
2023/08/07 03:29:58;;;;;;;10.05;2.25;;;;;;;13.67;100.00;101155.97;5073104;28;20575;-70
2023/08/07 03:32:24;;;;;;;12.27;2.55;;;;;;;13.63;100.00;101166.00;5049127;28;20389;-71
2023/08/07 03:34:51;;;;;;;9.60;2.15;;;;;;;13.61;100.00;101165.31;5069997;28;20139;-72
2023/08/07 03:37:18;;;;;;;18.25;2.75;;;;;;;13.58;100.00;101165.63;5063945;28;20048;-73
2023/08/07 03:39:47;;;;;;;8.68;2.30;;;;;;;13.54;100.00;101164.28;5074517;28;20052;-72
2023/08/07 03:42:17;;;;;;;11.00;2.47;;;;;;;13.52;100.00;101161.81;5075412;28;20059;-71
2023/08/07 03:44:43;;;;;;;8.20;2.15;;;;;;;13.53;100.00;101162.66;5080814;28;20086;-70
2023/08/07 03:47:10;;;;;;;7.20;2.28;;;;;;;13.50;100.00;101158.50;5058434;28;20098;-71
2023/08/07 03:49:36;;;;;;;6.70;2.10;;;;;;;13.50;100.00;101157.69;5081950;28;20496;-70
2023/08/07 03:52:03;;;;;;;11.25;2.30;;;;;;;13.52;100.00;101158.34;5067416;28;20084;-70
2023/08/07 03:54:30;;;;;;;12.30;2.25;;;;;;;13.47;100.00;101150.13;5061633;28;20425;-70
2023/08/07 03:56:56;;;;;;;7.07;1.98;;;;;;;13.46;100.00;101146.63;5067569;28;20052;-70
2023/08/07 03:59:23;;;;;;;14.88;2.53;;;;;;;13.54;100.00;101154.56;5039748;28;20063;-69
2023/08/07 04:01:50;;;;;;;9.98;2.50;;;;;;;13.45;100.00;101152.91;5044318;28;20135;-70
2023/08/07 04:04:16;;;;;;;11.32;2.13;;;;;;;13.48;100.00;101141.22;5055759;28;20048;-72
2023/08/07 04:06:43;;;;;;;11.18;3.00;;;;;;;13.49;100.00;101146.34;5047523;28;20048;-70
2023/08/07 04:09:10;;;;;;;7.88;2.10;;;;;;;13.45;100.00;101145.81;5060149;28;20052;-70
2023/08/07 04:11:36;;;;;;;11.30;2.50;;;;;;;13.45;100.00;101143.19;5048029;28;20385;-71
2023/08/07 04:14:03;;;;;;;8.77;2.10;;;;;;;13.45;100.00;101145.00;5081180;28;20067;-70
2023/08/07 04:16:31;;;;;;;9.15;2.10;;;;;;;13.47;100.00;101145.66;5072440;28;20048;-72
2023/08/07 04:18:57;;;;;;;13.15;2.20;;;;;;;13.49;100.00;101148.97;5061458;28;20131;-70
2023/08/07 04:21:24;;;;;;;7.78;2.10;;;;;;;13.43;100.00;101147.78;5076160;28;20061;-71
2023/08/07 04:23:50;;;;;;;6.82;1.90;;;;;;;13.53;100.00;101152.13;5057405;28;20113;-70
2023/08/07 04:26:17;;;;;;;5.32;1.75;;;;;;;13.56;100.00;101157.88;5076518;28;20055;-71
2023/08/07 04:28:43;;;;;;;7.30;2.03;;;;;;;13.61;100.00;101154.78;5065203;28;20284;-69
2023/08/07 04:31:10;;;;;;;6.47;1.90;;;;;;;13.67;100.00;101164.69;5071942;28;20135;-70
2023/08/07 04:33:36;;;;;;;6.72;1.98;;;;;;;13.58;100.00;101158.56;5049197;28;20079;-70
2023/08/07 04:36:03;;;;;;;4.30;1.58;;;;;;;13.67;100.00;101169.16;5065527;28;20106;-70
2023/08/07 04:38:30;;;;;;;5.25;1.70;;;;;;;13.67;100.00;101163.88;5059270;28;20052;-71
2023/08/07 04:40:56;;;;;;;11.85;2.30;;;;;;;13.71;100.00;101165.22;5074828;28;20052;-70
2023/08/07 04:43:23;;;;;;;10.43;2.15;;;;;;;13.67;100.00;101169.97;5047568;28;20051;-70
2023/08/07 04:45:49;;;;;;;8.82;1.90;;;;;;;13.66;100.00;101168.28;5063142;28;20552;-71
2023/08/07 04:48:17;;;;;;;7.00;2.13;;;;;;;13.68;100.00;101176.91;5073527;28;20131;-71
2023/08/07 04:50:44;;;;;;;8.90;1.98;;;;;;;13.69;100.00;101178.53;5066879;28;20416;-71
2023/08/07 04:53:10;;;;;;;7.88;2.13;;;;;;;13.56;100.00;101175.50;5065211;28;20467;-71
2023/08/07 04:55:38;;;;;;;7.47;1.75;;;;;;;13.63;100.00;101185.25;5058691;28;20053;-71
2023/08/07 04:58:05;;;;;;;10.80;2.35;;;;;;;13.53;100.00;101181.94;5044672;28;20132;-70
2023/08/07 05:00:32;;;;;;;6.85;2.03;;;;;;;13.61;100.00;101189.88;5048443;28;20080;-72
2023/08/07 05:02:58;;;;;;;9.65;2.22;;;;;;;13.61;100.00;101184.59;5079174;28;20052;-71
2023/08/07 05:05:25;;;;;;;7.00;2.50;;;;;;;13.68;100.00;101197.16;5072007;28;20044;-70
2023/08/07 05:07:51;;;;;;;9.50;2.10;;;;;;;13.64;100.00;101188.72;5065696;28;20138;-71
2023/08/07 05:10:18;;;;;;;7.60;2.30;;;;;;;13.68;100.00;101190.09;5065652;28;20084;-72
2023/08/07 05:12:45;;;;;;;12.00;2.72;;;;;;;13.71;100.00;101195.03;5048516;28;20055;-70
2023/08/07 05:15:11;;;;;;;6.15;2.08;;;;;;;13.77;100.00;101197.03;5079005;28;20056;-70
2023/08/07 05:17:38;;;;;;;6.43;2.25;;;;;;;13.77;100.00;101196.22;5059958;28;20048;-71
2023/08/07 05:20:05;;;;;;;6.88;2.25;;;;;;;13.81;100.00;101193.09;5056675;28;20497;-70
2023/08/07 05:22:32;;;;;;;6.97;2.17;;;;;;;13.80;100.00;101194.09;5047284;28;20048;-70
2023/08/07 05:24:58;;;;;;;8.68;2.40;;;;;;;13.85;100.00;101209.41;5052897;28;20523;-70
2023/08/07 05:27:25;;;;;;;10.20;2.80;;;;;;;13.83;100.00;101211.38;5063648;28;20473;-71
2023/08/07 05:29:51;;;;;;;13.48;2.70;;;;;;;13.84;100.00;101218.34;5055629;28;20493;-71
2023/08/07 05:32:18;;;;;;;14.45;2.63;;;;;;;13.84;100.00;101218.34;5068227;28;20309;-71
2023/08/07 05:34:44;;;;;;;11.07;2.60;;;;;;;13.84;100.00;101216.50;5073096;28;20125;-70
2023/08/07 05:37:11;;;;;;;9.52;2.53;;;;;;;13.85;100.00;101226.06;5053127;28;20051;-73
2023/08/07 05:39:37;;;;;;;10.18;2.90;;;;;;;13.83;100.00;101225.38;5065527;28;20048;-71
2023/08/07 05:42:04;;;;;;;8.85;2.53;;;;;;;13.83;100.00;101228.03;5064626;28;20485;-71
2023/08/07 05:44:31;;;;;;;10.00;2.47;;;;;;;13.89;100.00;101229.22;5082065;28;20044;-70
2023/08/07 05:46:58;;;;;;;10.88;2.65;;;;;;;13.85;100.00;101241.88;5057915;28;20052;-71
2023/08/07 05:49:25;;;;;;;10.25;2.30;;;;;;;13.85;100.00;101243.69;5078441;28;20513;-70
2023/08/07 05:51:53;;;;;;;8.43;2.85;;;;;;;13.92;100.00;101241.28;5078138;28;20136;-70
2023/08/07 05:54:20;;;;;;;9.13;2.67;;;;;;;13.96;100.00;101239.97;5057308;28;20048;-72
2023/08/07 05:56:47;;;;;;;10.30;2.30;;;;;;;14.04;100.00;101243.47;5059352;28;20277;-73
2023/08/07 05:59:15;;;;;;;10.52;2.78;;;;;;;14.03;100.00;101249.72;5062138;28;20121;-70
2023/08/07 06:01:42;;;;;;;10.10;2.53;;;;;;;14.04;100.00;101247.91;5083518;28;20047;-70
2023/08/07 06:04:08;;;;;;;10.30;2.70;;;;;;;14.05;100.00;101246.91;5078158;28;20489;-71
2023/08/07 06:06:36;;;;;;;9.35;2.72;;;;;;;14.07;100.00;101242.31;5067866;28;20044;-70
2023/08/07 06:09:03;;;;;;;9.05;2.22;;;;;;;14.11;100.00;101248.91;5070676;28;20385;-70
2023/08/07 06:11:30;;;;;;;12.30;2.40;;;;;;;14.17;100.00;101253.56;5076073;28;20563;-69
2023/08/07 06:13:57;;;;;;;8.68;2.53;;;;;;;14.24;100.00;101264.31;5072337;28;20387;-70
2023/08/07 06:16:25;;;;;;;8.02;2.80;;;;;;;14.23;100.00;101265.31;5079726;28;20048;-70
2023/08/07 06:18:52;;;;;;;7.80;2.22;;;;;;;14.27;100.00;101271.06;5079358;28;20055;-70
2023/08/07 06:21:19;;;;;;;9.48;2.30;;;;;;;14.27;100.00;101281.63;5075283;28;20134;-70
2023/08/07 06:23:46;;;;;;;11.93;2.78;;;;;;;14.25;100.00;101281.81;5073471;28;20052;-71
2023/08/07 06:26:13;;;;;;;12.13;2.58;;;;;;;14.28;100.00;101283.28;5074156;28;20659;-70
2023/08/07 06:28:40;;;;;;;10.60;2.85;;;;;;;14.31;100.00;101285.59;5071985;28;20048;-70
2023/08/07 06:31:07;;;;;;;14.90;2.75;;;;;;;14.30;100.00;101282.13;5066434;28;20110;-71
2023/08/07 06:33:34;;;;;;;7.85;2.45;;;;;;;14.41;100.00;101288.94;5079380;28;20503;-70
2023/08/07 06:36:02;;;;;;;11.50;2.90;;;;;;;14.47;100.00;101287.50;5048004;28;20412;-71
2023/08/07 06:38:29;;;;;;;12.90;2.42;;;;;;;14.43;100.00;101290.44;5071769;28;20059;-71
2023/08/07 06:40:55;;;;;;;10.23;2.72;;;;;;;14.51;100.00;101292.28;5076470;28;20055;-70
2023/08/07 06:43:22;;;;;;;10.65;2.80;;;;;;;14.50;100.00;101297.72;5082355;28;20052;-71
2023/08/07 06:45:53;;;;;;;8.77;2.55;;;;;;;14.48;100.00;101299.69;5070565;28;20059;-70
2023/08/07 06:48:20;;;;;;;10.85;2.85;;;;;;;14.48;100.00;101297.88;5081223;28;20052;-71
2023/08/07 06:50:47;;;;;;;9.80;2.83;;;;;;;14.50;100.00;101305.63;5057406;28;20103;-72
2023/08/07 06:53:14;;;;;;;12.85;2.92;;;;;;;14.57;100.00;101298.75;5058550;28;20053;-70
2023/08/07 06:55:41;;;;;;;9.55;3.17;;;;;;;14.64;100.00;101302.38;5062410;28;20406;-71
2023/08/07 06:58:08;;;;;;;10.10;2.63;;;;;;;14.70;100.00;101307.06;5059250;28;20656;-70
2023/08/07 07:00:36;;;;;;;12.50;2.30;;;;;;;14.72;100.00;101313.00;5070185;28;20128;-69
2023/08/07 07:03:03;;;;;;;10.65;3.10;;;;;;;14.72;100.00;101305.06;5049985;28;20048;-72
2023/08/07 07:05:30;;;;;;;14.00;3.20;;;;;;;14.83;100.00;101311.84;5069350;28;20131;-71
2023/08/07 07:07:57;;;;;;;12.05;2.40;;;;;;;14.91;100.00;101306.56;5075655;28;20134;-71
2023/08/07 07:10:26;;;;;;;10.68;2.85;;;;;;;15.05;100.00;101315.66;5076196;28;20105;-71
2023/08/07 07:12:53;;;;;;;8.45;2.65;;;;;;;15.07;100.00;101315.50;5057049;28;20067;-70
2023/08/07 07:15:19;;;;;;;8.50;2.40;;;;;;;15.12;100.00;101310.56;5065385;28;20123;-71
2023/08/07 07:17:46;;;;;;;13.07;2.60;;;;;;;15.21;100.00;101318.34;5037448;28;20078;-72
2023/08/07 07:20:13;;;;;;;14.68;2.83;;;;;;;15.26;100.00;101328.41;5068112;28;20167;-71
2023/08/07 07:22:40;;;;;;;12.02;2.70;;;;;;;15.19;100.00;101327.41;5057578;28;20493;-71
2023/08/07 07:25:07;;;;;;;10.30;2.67;;;;;;;15.31;100.00;101339.31;5072218;28;20706;-71
2023/08/07 07:27:33;;;;;;;11.80;2.65;;;;;;;15.42;100.00;101335.50;5049585;28;20052;-71
2023/08/07 07:30:00;;;;;;;10.07;2.67;;;;;;;15.52;100.00;101336.16;5055919;28;20048;-70
2023/08/07 07:32:27;;;;;;;8.57;2.47;;;;;;;15.53;100.00;101337.81;5075519;28;20055;-70
2023/08/07 07:34:53;;;;;;;8.90;2.67;;;;;;;15.58;100.00;101346.09;5062372;28;20074;-70
2023/08/07 07:37:20;;;;;;;12.20;2.88;;;;;;;15.63;100.00;101345.59;5056137;28;20122;-71
2023/08/07 07:39:46;;;;;;;13.27;2.63;;;;;;;15.63;100.00;101350.88;5063104;28;20048;-72
2023/08/07 07:42:12;;;;;;;13.13;3.05;;;;;;;15.64;100.00;101363.09;5077951;28;20142;-71
2023/08/07 07:44:39;;;;;;;9.13;2.25;;;;;;;15.49;100.00;101362.94;5069778;28;20536;-71
2023/08/07 07:47:07;;;;;;;12.45;2.45;;;;;;;15.47;100.00;101375.50;5080530;28;20040;-70
2023/08/07 07:49:38;;;;;;;12.75;2.70;;;;;;;15.49;100.00;101370.06;5072410;28;20048;-72
2023/08/07 07:52:06;;;;;;;13.23;2.58;;;;;;;15.55;100.00;101366.75;5081182;28;20123;-70
2023/08/07 07:54:32;;;;;;;8.45;2.65;;;;;;;15.62;100.00;101355.34;5069575;28;20059;-70
2023/08/07 07:56:59;;;;;;;15.10;3.60;;;;;;;15.74;100.00;101360.28;5076736;28;20126;-71
2023/08/07 07:59:25;;;;;;;13.50;3.40;;;;;;;15.77;100.00;101362.63;5075507;28;20102;-71
2023/08/07 08:01:52;;;;;;;11.68;2.95;;;;;;;15.82;100.00;101365.59;5057943;28;20452;-71
2023/08/07 08:04:19;;;;;;;11.77;2.90;;;;;;;15.80;100.00;101367.59;5080426;28;20591;-71
2023/08/07 08:06:48;;;;;;;12.95;2.75;;;;;;;15.83;100.00;101377.81;5075866;28;20054;-73
2023/08/07 08:09:15;;;;;;;11.88;2.60;;;;;;;15.74;100.00;101374.38;5064400;28;20057;-71
2023/08/07 08:11:42;;;;;;;10.02;3.10;;;;;;;15.80;100.00;101386.94;5073890;28;20112;-71
2023/08/07 08:14:08;;;;;;;8.15;2.40;;;;;;;15.72;100.00;101383.41;5075818;28;20420;-72
2023/08/07 08:16:35;;;;;;;12.65;2.72;;;;;;;15.68;100.00;101387.38;5082433;28;20044;-70
2023/08/07 08:19:02;;;;;;;7.90;2.60;;;;;;;15.72;100.00;101389.56;5056206;28;20054;-70
2023/08/07 08:21:30;;;;;;;15.98;2.70;;;;;;;15.67;100.00;101391.84;5079929;28;20135;-72
2023/08/07 08:23:57;;;;;;;12.32;2.88;;;;;;;15.79;100.00;101397.66;5072789;28;20056;-70
2023/08/07 08:26:24;;;;;;;7.75;2.38;;;;;;;15.91;100.00;101398.16;5075512;28;20086;-72
2023/08/07 08:28:50;;;;;;;12.00;2.88;;;;;;;16.06;100.00;101401.78;5081515;28;20135;-71
2023/08/07 08:31:17;;;;;;;12.68;2.88;;;;;;;16.33;100.00;101400.56;5073550;28;20060;-71
2023/08/07 08:33:44;;;;;;;12.73;2.92;;;;;;;16.48;100.00;101410.41;5062946;28;20059;-71
2023/08/07 08:36:10;;;;;;;11.38;2.92;;;;;;;16.48;100.00;101415.72;5072681;28;20048;-70
2023/08/07 08:38:37;;;;;;;9.95;2.67;;;;;;;16.69;100.00;101415.97;5075008;28;20500;-72
2023/08/07 08:41:08;;;;;;;13.43;3.20;;;;;;;16.99;100.00;101413.53;5069996;28;20048;-70
2023/08/07 08:43:37;;;;;;;13.43;2.60;;;;;;;17.13;100.00;101410.16;5081083;28;20500;-70
2023/08/07 08:46:08;;;;;;;12.27;2.72;;;;;;;17.05;100.00;101414.66;5062518;28;20043;-70
2023/08/07 08:48:39;;;;;;;11.57;3.17;;;;;;;16.95;100.00;101417.53;5072708;28;20056;-70
2023/08/07 08:51:08;;;;;;;13.23;2.80;;;;;;;16.66;100.00;101434.03;5079121;28;20341;-70
2023/08/07 08:53:35;;;;;;;11.95;2.75;;;;;;;16.52;100.00;101431.09;5068128;28;20055;-71
2023/08/07 08:56:02;;;;;;;9.35;2.33;;;;;;;16.27;100.00;101430.34;5079639;28;20099;-72
2023/08/07 08:58:29;;;;;;;9.27;2.88;;;;;;;16.09;100.00;101435.00;5058748;28;20054;-72
2023/08/07 09:00:55;;;;;;;11.30;3.00;;;;;;;15.90;100.00;101439.66;5064081;28;20055;-72
2023/08/07 09:03:24;;;;;;;10.32;2.58;;;;;;;16.05;100.00;101444.28;5085660;28;20056;-70
2023/08/07 09:05:52;;;;;;;;;;;;;;;16.20;100.00;101438.13;5055481;28;20505;-71
2023/08/07 09:08:19;;;;;;;;;;;;;;;16.39;100.00;101444.06;5079564;28;20062;-72
2023/08/07 09:10:46;;;;;;;9.30;2.65;;;;;;;16.41;100.00;101445.53;5060654;28;19924;-71
2023/08/07 09:13:16;;;;;;;10.35;2.60;;;;;;;16.63;100.00;101445.78;5083945;28;20083;-72
2023/08/07 09:15:47;;;;;;;10.95;2.40;;;;;;;16.64;100.00;101444.81;5083223;28;20080;-71
2023/08/07 09:18:15;;;;;;;13.70;2.58;;;;;;;16.93;100.00;101460.09;5073274;28;20044;-71
2023/08/07 09:20:42;;;;;;;11.17;2.60;;;;;;;17.16;100.00;101454.03;5078957;28;20095;-71
2023/08/07 09:23:08;;;;;;;10.18;2.88;;;;;;;17.26;100.00;101457.28;5071539;28;20156;-72
2023/08/07 09:25:35;;;;;;;12.35;3.00;;;;;;;17.47;100.00;101448.72;5082549;28;20128;-71
2023/08/07 09:28:06;;;;;;;13.98;2.35;;;;;;;17.59;100.00;101457.06;5079504;28;20444;-71
2023/08/07 09:30:35;;;;;;;9.38;2.25;;;;;;;17.81;100.00;101447.44;5082846;28;20063;-71
2023/08/07 09:33:02;;;;;;;11.60;2.28;;;;;;;17.94;100.00;101438.91;5077980;28;20056;-72
2023/08/07 09:35:31;;;;;;;11.63;2.70;;;;;;;18.10;100.00;101444.06;5055310;28;20074;-72
2023/08/07 09:37:58;;;;;;;6.30;1.92;;;;;;;18.47;100.00;101442.34;5081412;28;20308;-71
2023/08/07 09:40:25;;;;;;;10.07;2.70;;;;;;;18.35;100.00;101460.56;5076030;28;20085;-71
2023/08/07 09:42:54;;;;;;;8.55;2.80;;;;;;;17.96;100.00;101479.38;5083612;28;20074;-70
2023/08/07 09:45:21;;;;;;;;;;;;;;;17.89;100.00;101473.94;5056851;28;20160;-71
2023/08/07 09:47:57;;;;;;;8.97;1.80;;;;;;;17.79;100.00;101474.16;5076745;28;19928;-73
2023/08/07 09:50:24;;;;;;;7.03;2.10;;;;;;;17.89;100.00;101475.78;5081655;28;20067;-71
2023/08/07 09:52:51;;;;;;;12.27;2.20;;;;;;;18.05;100.00;101480.13;5075700;28;20052;-71
2023/08/07 09:55:18;;;;;;;9.88;2.78;;;;;;;18.14;100.00;101465.78;5084084;28;20048;-73
2023/08/07 09:57:45;;;;;;;11.55;2.40;;;;;;;18.03;100.00;101466.19;5058779;28;20494;-72
2023/08/07 10:00:14;;;;;;;8.18;2.00;;;;;;;18.32;100.00;101468.91;5078305;28;20177;-73
2023/08/07 10:02:42;;;;;;;8.88;2.03;;;;;;;18.34;100.00;101472.19;5071300;28;20051;-72
2023/08/07 10:05:10;;;;;;;9.23;2.20;;;;;;;18.55;100.00;101479.44;5062172;28;20537;-72
2023/08/07 10:07:38;;;;;;;7.43;1.90;;;;;;;18.90;100.00;101482.41;5084046;28;20144;-71
2023/08/07 10:10:06;;;;;;;6.37;2.43;;;;;;;19.20;100.00;101477.03;5059013;28;20146;-71
2023/08/07 10:12:33;;;;;;;9.30;2.03;;;;;;;19.40;100.00;101471.91;5083562;28;20289;-71
2023/08/07 10:15:00;;;;;;;7.30;2.03;;;;;;;19.34;99.41;101473.47;5068902;28;20633;-71
2023/08/07 10:17:27;;;;;;;9.85;2.17;;;;;;;19.33;91.53;101471.84;5081717;28;20051;-72
2023/08/07 10:19:54;;;;;;;7.78;2.17;;;;;;;19.49;93.75;101488.59;5076745;28;20070;-72
2023/08/07 10:22:25;;;;;;;9.23;2.63;;;;;;;19.33;94.51;101479.84;5081650;28;20514;-72
2023/08/07 10:24:53;;;;;;;10.05;2.33;;;;;;;19.03;92.21;101489.69;5082558;28;20063;-72
2023/08/07 10:27:23;;;;;;;11.85;2.35;;;;;;;19.06;93.58;101497.31;5076214;28;20504;-71
2023/08/07 10:29:54;;;;;;;6.78;2.28;;;;;;;18.85;93.51;101491.94;5056854;28;20195;-71
2023/08/07 10:32:23;;;;;;;7.93;2.08;;;;;;;18.88;100.00;101491.56;5077046;28;20481;-72
2023/08/07 10:34:50;;;;;;;15.35;2.15;;;;;;;18.71;96.93;101505.00;5080979;28;20055;-71
2023/08/07 10:37:44;;;;;;;8.90;2.22;;;;;;;18.65;96.47;101504.94;5077317;28;20044;-72
2023/08/07 10:40:12;;;;;;;7.00;1.90;;;;;;;18.52;96.54;101509.06;5077099;28;20147;-71
2023/08/07 10:42:56;;;;;;;13.80;2.53;;;;;;;18.46;100.00;101515.06;5060152;28;20087;-71
2023/08/07 10:45:23;;;;;;;9.05;2.00;;;;;;;18.40;96.33;101507.81;5070707;28;20058;-72
2023/08/07 10:48:12;;;;;;;10.48;2.30;;;;;;;18.47;100.00;101518.56;5081842;28;20083;-72
2023/08/07 10:50:57;;;;;;;10.95;2.38;;;;;;;18.38;100.00;101513.34;5057627;28;20044;-71
2023/08/07 10:53:32;;;;;;;8.48;2.45;;;;;;;18.49;100.00;101522.69;5064514;28;20125;-71
2023/08/07 10:56:02;;;;;;;11.00;2.38;;;;;;;18.73;100.00;101510.97;5071892;28;20136;-72
2023/08/07 10:58:32;;;;;;;10.18;2.53;;;;;;;18.80;100.00;101520.88;5057605;28;20684;-72
2023/08/07 11:01:21;;;;;;;8.80;2.15;;;;;;;18.50;98.26;101526.16;5072643;28;20052;-71
2023/08/07 11:03:50;;;;;;;8.70;3.08;;;;;;;18.54;100.00;101527.44;5080422;28;20216;-72
2023/08/07 11:06:21;;;;;;;7.68;1.88;;;;;;;18.60;100.00;101524.06;5076668;28;20159;-72
2023/08/07 11:08:50;;;;;;;7.25;2.05;;;;;;;18.70;99.32;101535.25;5079524;28;20113;-71
2023/08/07 11:11:17;;;;;;;7.40;1.92;;;;;;;18.93;96.63;101518.41;5060724;28;20112;-71
2023/08/07 11:13:44;;;;;;;5.78;1.80;;;;;;;18.98;94.62;101526.66;5053005;28;20420;-71
2023/08/07 11:16:12;;;;;;;6.05;1.95;;;;;;;19.20;88.76;101538.19;5063810;28;20063;-72